sensor_id;sensor_type;location;lat;lon;timestamp;P1;durP1;ratioP1;P2;durP2;ratioP2
3487;SDS011;38546;48.170;11.724;2023-03-14T00:02:40;0.80;;;0.80;;
3487;SDS011;38546;48.170;11.724;2023-03-14T00:05:29;0.80;;;0.80;;
3487;SDS011;38546;48.170;11.724;2023-03-14T00:08:19;0.80;;;0.80;;
3487;SDS011;38546;48.170;11.724;2023-03-14T00:11:11;0.77;;;0.77;;
3487;SDS011;38546;48.170;11.724;2023-03-14T00:14:07;1.13;;;0.90;;
3487;SDS011;38546;48.170;11.724;2023-03-14T00:16:57;0.70;;;0.70;;
3487;SDS011;38546;48.170;11.724;2023-03-14T00:19:46;0.73;;;0.73;;
3487;SDS011;38546;48.170;11.724;2023-03-14T00:22:36;0.90;;;0.90;;
3487;SDS011;38546;48.170;11.724;2023-03-14T00:25:26;0.90;;;0.90;;
3487;SDS011;38546;48.170;11.724;2023-03-14T00:28:15;0.70;;;0.70;;
3487;SDS011;38546;48.170;11.724;2023-03-14T00:31:05;0.80;;;0.80;;
3487;SDS011;38546;48.170;11.724;2023-03-14T00:33:57;0.70;;;0.70;;
3487;SDS011;38546;48.170;11.724;2023-03-14T00:36:46;1.10;;;1.10;;
3487;SDS011;38546;48.170;11.724;2023-03-14T00:39:35;1.17;;;0.67;;
3487;SDS011;38546;48.170;11.724;2023-03-14T00:42:25;0.93;;;0.93;;
3487;SDS011;38546;48.170;11.724;2023-03-14T00:45:14;0.83;;;0.83;;
3487;SDS011;38546;48.170;11.724;2023-03-14T00:48:03;0.80;;;0.80;;
3487;SDS011;38546;48.170;11.724;2023-03-14T00:50:53;0.60;;;0.60;;
3487;SDS011;38546;48.170;11.724;2023-03-14T00:53:43;0.60;;;0.60;;
3487;SDS011;38546;48.170;11.724;2023-03-14T00:56:32;0.60;;;0.50;;
3487;SDS011;38546;48.170;11.724;2023-03-14T00:59:21;0.50;;;0.50;;
3487;SDS011;38546;48.170;11.724;2023-03-14T01:02:11;0.60;;;0.60;;
3487;SDS011;38546;48.170;11.724;2023-03-14T01:05:00;0.50;;;0.50;;
3487;SDS011;38546;48.170;11.724;2023-03-14T01:07:49;0.67;;;0.67;;
3487;SDS011;38546;48.170;11.724;2023-03-14T01:10:40;0.67;;;0.67;;
3487;SDS011;38546;48.170;11.724;2023-03-14T01:13:30;0.80;;;0.80;;
3487;SDS011;38546;48.170;11.724;2023-03-14T01:16:19;0.80;;;0.80;;
3487;SDS011;38546;48.170;11.724;2023-03-14T01:19:10;0.60;;;0.57;;
3487;SDS011;38546;48.170;11.724;2023-03-14T01:21:59;1.23;;;0.60;;
3487;SDS011;38546;48.170;11.724;2023-03-14T01:24:49;1.10;;;1.10;;
3487;SDS011;38546;48.170;11.724;2023-03-14T01:27:38;0.70;;;0.70;;
3487;SDS011;38546;48.170;11.724;2023-03-14T01:30:28;1.00;;;0.97;;
3487;SDS011;38546;48.170;11.724;2023-03-14T01:33:17;1.03;;;0.97;;
3487;SDS011;38546;48.170;11.724;2023-03-14T01:36:06;0.80;;;0.80;;
3487;SDS011;38546;48.170;11.724;2023-03-14T01:38:57;0.63;;;0.63;;
3487;SDS011;38546;48.170;11.724;2023-03-14T01:41:46;1.33;;;0.90;;
3487;SDS011;38546;48.170;11.724;2023-03-14T01:44:49;0.80;;;0.80;;
3487;SDS011;38546;48.170;11.724;2023-03-14T01:47:46;2.33;;;1.17;;
3487;SDS011;38546;48.170;11.724;2023-03-14T01:50:35;0.87;;;0.87;;
3487;SDS011;38546;48.170;11.724;2023-03-14T01:53:25;0.90;;;0.90;;
3487;SDS011;38546;48.170;11.724;2023-03-14T01:56:16;0.90;;;0.90;;
3487;SDS011;38546;48.170;11.724;2023-03-14T01:59:08;1.47;;;0.90;;
3487;SDS011;38546;48.170;11.724;2023-03-14T02:02:00;0.80;;;0.80;;
3487;SDS011;38546;48.170;11.724;2023-03-14T02:04:50;1.03;;;0.83;;
3487;SDS011;38546;48.170;11.724;2023-03-14T02:07:42;0.60;;;0.60;;
3487;SDS011;38546;48.170;11.724;2023-03-14T02:10:40;0.70;;;0.70;;
3487;SDS011;38546;48.170;11.724;2023-03-14T02:13:33;0.60;;;0.60;;
3487;SDS011;38546;48.170;11.724;2023-03-14T02:16:23;0.60;;;0.60;;
3487;SDS011;38546;48.170;11.724;2023-03-14T02:19:13;0.73;;;0.73;;
3487;SDS011;38546;48.170;11.724;2023-03-14T02:22:10;0.50;;;0.50;;
3487;SDS011;38546;48.170;11.724;2023-03-14T02:26:27;0.80;;;0.80;;
3487;SDS011;38546;48.170;11.724;2023-03-14T02:29:25;1.03;;;0.60;;
3487;SDS011;38546;48.170;11.724;2023-03-14T02:32:15;0.70;;;0.70;;
3487;SDS011;38546;48.170;11.724;2023-03-14T02:35:08;0.40;;;0.40;;
3487;SDS011;38546;48.170;11.724;2023-03-14T02:38:10;0.60;;;0.60;;
3487;SDS011;38546;48.170;11.724;2023-03-14T02:41:22;0.50;;;0.50;;
3487;SDS011;38546;48.170;11.724;2023-03-14T02:44:11;0.60;;;0.60;;
3487;SDS011;38546;48.170;11.724;2023-03-14T02:47:02;0.70;;;0.70;;
3487;SDS011;38546;48.170;11.724;2023-03-14T02:49:53;1.60;;;0.70;;
3487;SDS011;38546;48.170;11.724;2023-03-14T02:53:33;0.70;;;0.70;;
3487;SDS011;38546;48.170;11.724;2023-03-14T02:56:25;1.87;;;0.50;;
3487;SDS011;38546;48.170;11.724;2023-03-14T02:59:14;0.60;;;0.60;;
3487;SDS011;38546;48.170;11.724;2023-03-14T03:02:03;0.80;;;0.80;;
3487;SDS011;38546;48.170;11.724;2023-03-14T03:04:52;0.60;;;0.60;;
3487;SDS011;38546;48.170;11.724;2023-03-14T03:07:42;1.13;;;0.50;;
3487;SDS011;38546;48.170;11.724;2023-03-14T03:10:32;0.50;;;0.50;;
3487;SDS011;38546;48.170;11.724;2023-03-14T03:13:21;0.60;;;0.60;;
3487;SDS011;38546;48.170;11.724;2023-03-14T03:16:11;0.50;;;0.50;;
3487;SDS011;38546;48.170;11.724;2023-03-14T03:19:02;0.60;;;0.60;;
3487;SDS011;38546;48.170;11.724;2023-03-14T03:21:51;0.60;;;0.60;;
3487;SDS011;38546;48.170;11.724;2023-03-14T03:24:40;1.23;;;0.70;;
3487;SDS011;38546;48.170;11.724;2023-03-14T03:27:30;0.60;;;0.60;;
3487;SDS011;38546;48.170;11.724;2023-03-14T03:30:20;0.50;;;0.50;;
3487;SDS011;38546;48.170;11.724;2023-03-14T03:33:10;0.47;;;0.47;;
3487;SDS011;38546;48.170;11.724;2023-03-14T03:36:00;0.60;;;0.60;;
3487;SDS011;38546;48.170;11.724;2023-03-14T03:38:50;0.70;;;0.70;;
3487;SDS011;38546;48.170;11.724;2023-03-14T03:41:40;0.50;;;0.50;;
3487;SDS011;38546;48.170;11.724;2023-03-14T03:44:29;0.67;;;0.47;;
3487;SDS011;38546;48.170;11.724;2023-03-14T03:47:19;0.50;;;0.50;;
3487;SDS011;38546;48.170;11.724;2023-03-14T03:50:08;1.53;;;0.50;;
3487;SDS011;38546;48.170;11.724;2023-03-14T03:52:59;0.80;;;0.60;;
3487;SDS011;38546;48.170;11.724;2023-03-14T03:55:49;0.60;;;0.60;;
3487;SDS011;38546;48.170;11.724;2023-03-14T03:58:38;0.50;;;0.50;;
3487;SDS011;38546;48.170;11.724;2023-03-14T04:01:27;0.40;;;0.40;;
3487;SDS011;38546;48.170;11.724;2023-03-14T04:04:16;0.40;;;0.40;;
3487;SDS011;38546;48.170;11.724;2023-03-14T04:07:06;0.50;;;0.50;;
3487;SDS011;38546;48.170;11.724;2023-03-14T04:09:55;0.60;;;0.50;;
3487;SDS011;38546;48.170;11.724;2023-03-14T04:12:44;0.50;;;0.50;;
3487;SDS011;38546;48.170;11.724;2023-03-14T04:15:34;0.40;;;0.40;;
3487;SDS011;38546;48.170;11.724;2023-03-14T04:18:23;0.50;;;0.50;;
3487;SDS011;38546;48.170;11.724;2023-03-14T04:21:13;0.50;;;0.50;;
3487;SDS011;38546;48.170;11.724;2023-03-14T04:24:04;0.40;;;0.40;;
3487;SDS011;38546;48.170;11.724;2023-03-14T04:26:54;0.43;;;0.43;;
3487;SDS011;38546;48.170;11.724;2023-03-14T04:29:43;0.50;;;0.50;;
3487;SDS011;38546;48.170;11.724;2023-03-14T04:32:32;0.80;;;0.77;;
3487;SDS011;38546;48.170;11.724;2023-03-14T04:35:21;0.50;;;0.50;;
3487;SDS011;38546;48.170;11.724;2023-03-14T04:38:10;0.73;;;0.43;;
3487;SDS011;38546;48.170;11.724;2023-03-14T04:41:00;0.63;;;0.60;;
3487;SDS011;38546;48.170;11.724;2023-03-14T04:43:50;0.70;;;0.70;;
3487;SDS011;38546;48.170;11.724;2023-03-14T04:46:40;1.10;;;0.53;;
3487;SDS011;38546;48.170;11.724;2023-03-14T04:49:29;0.57;;;0.57;;
3487;SDS011;38546;48.170;11.724;2023-03-14T04:52:18;0.47;;;0.47;;
3487;SDS011;38546;48.170;11.724;2023-03-14T04:55:08;0.47;;;0.40;;
3487;SDS011;38546;48.170;11.724;2023-03-14T04:57:58;0.57;;;0.57;;
3487;SDS011;38546;48.170;11.724;2023-03-14T05:00:48;0.40;;;0.40;;
3487;SDS011;38546;48.170;11.724;2023-03-14T05:03:37;0.50;;;0.50;;
3487;SDS011;38546;48.170;11.724;2023-03-14T05:06:27;0.50;;;0.50;;
3487;SDS011;38546;48.170;11.724;2023-03-14T05:09:16;0.57;;;0.57;;
3487;SDS011;38546;48.170;11.724;2023-03-14T05:12:05;3.37;;;2.03;;
3487;SDS011;38546;48.170;11.724;2023-03-14T05:14:55;0.50;;;0.50;;
3487;SDS011;38546;48.170;11.724;2023-03-14T05:17:44;0.50;;;0.50;;
3487;SDS011;38546;48.170;11.724;2023-03-14T05:20:35;0.60;;;0.60;;
3487;SDS011;38546;48.170;11.724;2023-03-14T05:23:24;0.73;;;0.73;;
3487;SDS011;38546;48.170;11.724;2023-03-14T05:26:14;0.40;;;0.40;;
3487;SDS011;38546;48.170;11.724;2023-03-14T05:29:05;0.50;;;0.50;;
3487;SDS011;38546;48.170;11.724;2023-03-14T05:31:55;0.40;;;0.40;;
3487;SDS011;38546;48.170;11.724;2023-03-14T05:34:44;0.50;;;0.50;;
3487;SDS011;38546;48.170;11.724;2023-03-14T05:37:33;0.40;;;0.40;;
3487;SDS011;38546;48.170;11.724;2023-03-14T05:40:23;0.60;;;0.60;;
3487;SDS011;38546;48.170;11.724;2023-03-14T05:43:12;0.50;;;0.50;;
3487;SDS011;38546;48.170;11.724;2023-03-14T05:46:02;0.60;;;0.60;;
3487;SDS011;38546;48.170;11.724;2023-03-14T05:48:51;0.40;;;0.40;;
3487;SDS011;38546;48.170;11.724;2023-03-14T05:51:41;0.50;;;0.50;;
3487;SDS011;38546;48.170;11.724;2023-03-14T05:54:30;0.43;;;0.43;;
3487;SDS011;38546;48.170;11.724;2023-03-14T05:57:20;0.53;;;0.53;;
3487;SDS011;38546;48.170;11.724;2023-03-14T06:00:09;1.10;;;1.00;;
3487;SDS011;38546;48.170;11.724;2023-03-14T06:03:00;0.50;;;0.50;;
3487;SDS011;38546;48.170;11.724;2023-03-14T06:05:49;0.50;;;0.50;;
3487;SDS011;38546;48.170;11.724;2023-03-14T06:08:39;0.60;;;0.60;;
3487;SDS011;38546;48.170;11.724;2023-03-14T06:11:28;0.60;;;0.60;;
3487;SDS011;38546;48.170;11.724;2023-03-14T06:14:17;0.50;;;0.50;;
3487;SDS011;38546;48.170;11.724;2023-03-14T06:17:06;0.60;;;0.60;;
3487;SDS011;38546;48.170;11.724;2023-03-14T06:19:56;0.57;;;0.57;;
3487;SDS011;38546;48.170;11.724;2023-03-14T06:22:45;0.50;;;0.50;;
3487;SDS011;38546;48.170;11.724;2023-03-14T06:25:35;0.63;;;0.63;;
3487;SDS011;38546;48.170;11.724;2023-03-14T06:28:25;0.50;;;0.50;;
3487;SDS011;38546;48.170;11.724;2023-03-14T06:31:14;0.50;;;0.50;;
3487;SDS011;38546;48.170;11.724;2023-03-14T06:34:03;0.67;;;0.67;;
3487;SDS011;38546;48.170;11.724;2023-03-14T06:36:53;0.60;;;0.60;;
3487;SDS011;38546;48.170;11.724;2023-03-14T06:39:42;0.90;;;0.90;;
3487;SDS011;38546;48.170;11.724;2023-03-14T06:42:33;0.70;;;0.70;;
3487;SDS011;38546;48.170;11.724;2023-03-14T06:45:22;0.70;;;0.70;;
3487;SDS011;38546;48.170;11.724;2023-03-14T06:48:12;0.50;;;0.50;;
3487;SDS011;38546;48.170;11.724;2023-03-14T06:51:01;0.53;;;0.53;;
3487;SDS011;38546;48.170;11.724;2023-03-14T06:53:50;0.57;;;0.57;;
3487;SDS011;38546;48.170;11.724;2023-03-14T06:56:39;0.50;;;0.50;;
3487;SDS011;38546;48.170;11.724;2023-03-14T06:59:29;0.50;;;0.50;;
3487;SDS011;38546;48.170;11.724;2023-03-14T07:02:18;0.60;;;0.60;;
3487;SDS011;38546;48.170;11.724;2023-03-14T07:05:07;0.70;;;0.70;;
3487;SDS011;38546;48.170;11.724;2023-03-14T07:07:58;0.50;;;0.50;;
3487;SDS011;38546;48.170;11.724;2023-03-14T07:10:47;1.70;;;0.80;;
3487;SDS011;38546;48.170;11.724;2023-03-14T07:13:36;0.80;;;0.80;;
3487;SDS011;38546;48.170;11.724;2023-03-14T07:16:26;0.63;;;0.63;;
3487;SDS011;38546;48.170;11.724;2023-03-14T07:19:17;2.53;;;1.00;;
3487;SDS011;38546;48.170;11.724;2023-03-14T07:22:06;0.67;;;0.67;;
3487;SDS011;38546;48.170;11.724;2023-03-14T07:24:55;0.60;;;0.60;;
3487;SDS011;38546;48.170;11.724;2023-03-14T07:27:44;0.50;;;0.50;;
3487;SDS011;38546;48.170;11.724;2023-03-14T07:30:35;0.50;;;0.50;;
3487;SDS011;38546;48.170;11.724;2023-03-14T07:33:23;0.60;;;0.60;;
3487;SDS011;38546;48.170;11.724;2023-03-14T07:36:13;0.40;;;0.40;;
3487;SDS011;38546;48.170;11.724;2023-03-14T07:39:01;0.97;;;0.80;;
3487;SDS011;38546;48.170;11.724;2023-03-14T07:41:52;2.77;;;0.90;;
3487;SDS011;38546;48.170;11.724;2023-03-14T07:44:41;0.70;;;0.70;;
3487;SDS011;38546;48.170;11.724;2023-03-14T07:47:30;1.27;;;0.90;;
3487;SDS011;38546;48.170;11.724;2023-03-14T07:50:19;0.70;;;0.70;;
3487;SDS011;38546;48.170;11.724;2023-03-14T07:53:08;0.60;;;0.60;;
3487;SDS011;38546;48.170;11.724;2023-03-14T07:55:57;1.60;;;0.70;;
3487;SDS011;38546;48.170;11.724;2023-03-14T07:58:46;0.80;;;0.60;;
3487;SDS011;38546;48.170;11.724;2023-03-14T08:01:35;0.50;;;0.50;;
3487;SDS011;38546;48.170;11.724;2023-03-14T08:04:24;0.77;;;0.77;;
3487;SDS011;38546;48.170;11.724;2023-03-14T08:07:13;0.90;;;0.90;;
3487;SDS011;38546;48.170;11.724;2023-03-14T08:10:03;0.77;;;0.77;;
3487;SDS011;38546;48.170;11.724;2023-03-14T08:12:55;0.70;;;0.70;;
3487;SDS011;38546;48.170;11.724;2023-03-14T08:15:47;1.20;;;1.10;;
3487;SDS011;38546;48.170;11.724;2023-03-14T08:18:37;1.70;;;0.80;;
3487;SDS011;38546;48.170;11.724;2023-03-14T08:21:27;2.10;;;0.93;;
3487;SDS011;38546;48.170;11.724;2023-03-14T08:24:16;1.53;;;1.20;;
3487;SDS011;38546;48.170;11.724;2023-03-14T08:27:05;0.70;;;0.70;;
3487;SDS011;38546;48.170;11.724;2023-03-14T08:29:54;1.37;;;1.00;;
3487;SDS011;38546;48.170;11.724;2023-03-14T08:32:44;1.03;;;0.90;;
3487;SDS011;38546;48.170;11.724;2023-03-14T08:35:33;0.50;;;0.50;;
3487;SDS011;38546;48.170;11.724;2023-03-14T08:38:23;0.60;;;0.60;;
3487;SDS011;38546;48.170;11.724;2023-03-14T08:41:12;2.57;;;0.50;;
3487;SDS011;38546;48.170;11.724;2023-03-14T08:44:02;0.50;;;0.50;;
3487;SDS011;38546;48.170;11.724;2023-03-14T08:46:51;1.60;;;0.57;;
3487;SDS011;38546;48.170;11.724;2023-03-14T08:49:40;1.90;;;0.60;;
3487;SDS011;38546;48.170;11.724;2023-03-14T08:52:30;0.60;;;0.60;;
3487;SDS011;38546;48.170;11.724;2023-03-14T08:55:19;0.87;;;0.70;;
3487;SDS011;38546;48.170;11.724;2023-03-14T08:58:09;0.63;;;0.63;;
3487;SDS011;38546;48.170;11.724;2023-03-14T09:00:58;0.50;;;0.50;;
3487;SDS011;38546;48.170;11.724;2023-03-14T09:03:47;0.90;;;0.67;;
3487;SDS011;38546;48.170;11.724;2023-03-14T09:06:37;1.43;;;0.77;;
3487;SDS011;38546;48.170;11.724;2023-03-14T09:09:27;1.07;;;0.60;;
3487;SDS011;38546;48.170;11.724;2023-03-14T09:12:16;0.50;;;0.50;;
3487;SDS011;38546;48.170;11.724;2023-03-14T09:15:06;0.60;;;0.60;;
3487;SDS011;38546;48.170;11.724;2023-03-14T09:17:56;0.60;;;0.60;;
3487;SDS011;38546;48.170;11.724;2023-03-14T09:20:46;1.33;;;0.57;;
3487;SDS011;38546;48.170;11.724;2023-03-14T09:23:35;1.10;;;0.80;;
3487;SDS011;38546;48.170;11.724;2023-03-14T09:26:25;0.70;;;0.70;;
3487;SDS011;38546;48.170;11.724;2023-03-14T09:29:15;0.60;;;0.60;;
3487;SDS011;38546;48.170;11.724;2023-03-14T09:32:04;0.60;;;0.60;;
3487;SDS011;38546;48.170;11.724;2023-03-14T09:34:54;0.70;;;0.70;;
3487;SDS011;38546;48.170;11.724;2023-03-14T09:37:43;0.70;;;0.70;;
3487;SDS011;38546;48.170;11.724;2023-03-14T09:40:33;0.60;;;0.60;;
3487;SDS011;38546;48.170;11.724;2023-03-14T09:43:25;0.57;;;0.57;;
3487;SDS011;38546;48.170;11.724;2023-03-14T09:46:18;0.80;;;0.80;;
3487;SDS011;38546;48.170;11.724;2023-03-14T09:49:10;0.60;;;0.60;;
3487;SDS011;38546;48.170;11.724;2023-03-14T09:52:14;0.63;;;0.63;;
3487;SDS011;38546;48.170;11.724;2023-03-14T09:55:19;0.50;;;0.50;;
3487;SDS011;38546;48.170;11.724;2023-03-14T09:58:16;0.60;;;0.60;;
3487;SDS011;38546;48.170;11.724;2023-03-14T10:01:09;0.60;;;0.60;;
3487;SDS011;38546;48.170;11.724;2023-03-14T10:04:09;0.50;;;0.50;;
3487;SDS011;38546;48.170;11.724;2023-03-14T10:07:02;0.50;;;0.50;;
3487;SDS011;38546;48.170;11.724;2023-03-14T10:09:52;0.60;;;0.60;;
3487;SDS011;38546;48.170;11.724;2023-03-14T10:12:44;0.60;;;0.60;;
3487;SDS011;38546;48.170;11.724;2023-03-14T10:16:01;0.83;;;0.83;;
3487;SDS011;38546;48.170;11.724;2023-03-14T10:19:04;0.60;;;0.60;;
3487;SDS011;38546;48.170;11.724;2023-03-14T10:21:57;0.50;;;0.50;;
3487;SDS011;38546;48.170;11.724;2023-03-14T10:24:55;0.73;;;0.73;;
3487;SDS011;38546;48.170;11.724;2023-03-14T10:27:49;0.80;;;0.80;;
3487;SDS011;38546;48.170;11.724;2023-03-14T10:30:39;1.43;;;1.33;;
3487;SDS011;38546;48.170;11.724;2023-03-14T10:33:35;1.80;;;1.17;;
3487;SDS011;38546;48.170;11.724;2023-03-14T10:36:27;1.10;;;0.93;;
3487;SDS011;38546;48.170;11.724;2023-03-14T10:39:26;2.37;;;0.90;;
3487;SDS011;38546;48.170;11.724;2023-03-14T10:42:28;0.57;;;0.57;;
3487;SDS011;38546;48.170;11.724;2023-03-14T10:45:31;0.90;;;0.90;;
3487;SDS011;38546;48.170;11.724;2023-03-14T10:48:34;0.80;;;0.80;;
3487;SDS011;38546;48.170;11.724;2023-03-14T10:51:26;0.93;;;0.93;;
3487;SDS011;38546;48.170;11.724;2023-03-14T10:54:22;0.60;;;0.60;;
3487;SDS011;38546;48.170;11.724;2023-03-14T10:57:14;1.50;;;0.73;;
3487;SDS011;38546;48.170;11.724;2023-03-14T11:00:05;1.93;;;0.63;;
3487;SDS011;38546;48.170;11.724;2023-03-14T11:03:10;0.83;;;0.73;;
3487;SDS011;38546;48.170;11.724;2023-03-14T11:06:05;0.67;;;0.63;;
3487;SDS011;38546;48.170;11.724;2023-03-14T11:09:13;0.93;;;0.93;;
3487;SDS011;38546;48.170;11.724;2023-03-14T11:12:50;2.20;;;1.20;;
3487;SDS011;38546;48.170;11.724;2023-03-14T11:22:55;0.90;;;0.90;;
3487;SDS011;38546;48.170;11.724;2023-03-14T11:31:36;1.80;;;1.00;;
3487;SDS011;38546;48.170;11.724;2023-03-14T11:34:33;0.70;;;0.70;;
3487;SDS011;38546;48.170;11.724;2023-03-14T11:37:44;2.17;;;2.00;;
3487;SDS011;38546;48.170;11.724;2023-03-14T11:40:40;3.30;;;1.10;;
3487;SDS011;38546;48.170;11.724;2023-03-14T11:43:34;0.83;;;0.57;;
3487;SDS011;38546;48.170;11.724;2023-03-14T11:46:48;0.73;;;0.73;;
3487;SDS011;38546;48.170;11.724;2023-03-14T11:54:02;0.90;;;0.90;;
3487;SDS011;38546;48.170;11.724;2023-03-14T11:57:05;3.73;;;2.30;;
3487;SDS011;38546;48.170;11.724;2023-03-14T12:00:22;1.00;;;1.00;;
3487;SDS011;38546;48.170;11.724;2023-03-14T12:03:34;2.10;;;0.90;;
3487;SDS011;38546;48.170;11.724;2023-03-14T12:06:46;0.90;;;0.80;;
3487;SDS011;38546;48.170;11.724;2023-03-14T12:09:39;0.90;;;0.90;;
3487;SDS011;38546;48.170;11.724;2023-03-14T12:12:29;0.63;;;0.63;;
3487;SDS011;38546;48.170;11.724;2023-03-14T12:15:20;1.13;;;0.77;;
3487;SDS011;38546;48.170;11.724;2023-03-14T12:18:21;0.87;;;0.87;;
3487;SDS011;38546;48.170;11.724;2023-03-14T12:21:24;0.60;;;0.60;;
3487;SDS011;38546;48.170;11.724;2023-03-14T12:24:33;0.50;;;0.50;;
3487;SDS011;38546;48.170;11.724;2023-03-14T12:27:43;1.03;;;0.47;;
3487;SDS011;38546;48.170;11.724;2023-03-14T12:33:10;0.70;;;0.70;;
3487;SDS011;38546;48.170;11.724;2023-03-14T12:36:12;0.43;;;0.43;;
3487;SDS011;38546;48.170;11.724;2023-03-14T12:46:23;0.70;;;0.70;;
3487;SDS011;38546;48.170;11.724;2023-03-14T12:49:16;2.10;;;0.60;;
3487;SDS011;38546;48.170;11.724;2023-03-14T12:52:13;0.63;;;0.63;;
3487;SDS011;38546;48.170;11.724;2023-03-14T12:55:21;0.50;;;0.50;;
3487;SDS011;38546;48.170;11.724;2023-03-14T12:58:38;0.50;;;0.50;;
3487;SDS011;38546;48.170;11.724;2023-03-14T13:04:10;0.50;;;0.50;;
3487;SDS011;38546;48.170;11.724;2023-03-14T13:07:01;1.83;;;0.60;;
3487;SDS011;38546;48.170;11.724;2023-03-14T13:09:53;0.50;;;0.50;;
3487;SDS011;38546;48.170;11.724;2023-03-14T13:12:57;0.40;;;0.40;;
3487;SDS011;38546;48.170;11.724;2023-03-14T13:15:56;1.90;;;0.67;;
3487;SDS011;38546;48.170;11.724;2023-03-14T13:18:49;0.50;;;0.50;;
3487;SDS011;38546;48.170;11.724;2023-03-14T13:21:48;0.73;;;0.73;;
3487;SDS011;38546;48.170;11.724;2023-03-14T13:24:39;0.63;;;0.63;;
3487;SDS011;38546;48.170;11.724;2023-03-14T13:27:29;0.90;;;0.50;;
3487;SDS011;38546;48.170;11.724;2023-03-14T13:30:23;0.70;;;0.70;;
3487;SDS011;38546;48.170;11.724;2023-03-14T13:33:20;0.83;;;0.70;;
3487;SDS011;38546;48.170;11.724;2023-03-14T13:36:11;0.60;;;0.60;;
3487;SDS011;38546;48.170;11.724;2023-03-14T13:39:00;0.60;;;0.60;;
3487;SDS011;38546;48.170;11.724;2023-03-14T13:41:57;0.50;;;0.50;;
3487;SDS011;38546;48.170;11.724;2023-03-14T13:44:48;0.93;;;0.70;;
3487;SDS011;38546;48.170;11.724;2023-03-14T13:47:39;0.77;;;0.77;;
3487;SDS011;38546;48.170;11.724;2023-03-14T13:50:29;1.00;;;0.67;;
3487;SDS011;38546;48.170;11.724;2023-03-14T13:53:19;0.40;;;0.40;;
3487;SDS011;38546;48.170;11.724;2023-03-14T13:56:09;0.33;;;0.33;;
3487;SDS011;38546;48.170;11.724;2023-03-14T13:59:00;0.40;;;0.40;;
3487;SDS011;38546;48.170;11.724;2023-03-14T14:01:50;1.90;;;1.43;;
3487;SDS011;38546;48.170;11.724;2023-03-14T14:04:41;0.50;;;0.50;;
3487;SDS011;38546;48.170;11.724;2023-03-14T14:07:31;0.70;;;0.57;;
3487;SDS011;38546;48.170;11.724;2023-03-14T14:10:20;0.80;;;0.50;;
3487;SDS011;38546;48.170;11.724;2023-03-14T14:13:11;0.60;;;0.60;;
3487;SDS011;38546;48.170;11.724;2023-03-14T14:16:07;0.50;;;0.50;;
3487;SDS011;38546;48.170;11.724;2023-03-14T14:18:57;0.57;;;0.57;;
3487;SDS011;38546;48.170;11.724;2023-03-14T14:21:49;0.50;;;0.50;;
3487;SDS011;38546;48.170;11.724;2023-03-14T14:24:39;0.40;;;0.40;;
3487;SDS011;38546;48.170;11.724;2023-03-14T14:27:32;0.50;;;0.50;;
3487;SDS011;38546;48.170;11.724;2023-03-14T14:30:29;0.47;;;0.47;;
3487;SDS011;38546;48.170;11.724;2023-03-14T14:33:21;0.60;;;0.60;;
3487;SDS011;38546;48.170;11.724;2023-03-14T14:36:15;0.53;;;0.53;;
3487;SDS011;38546;48.170;11.724;2023-03-14T14:39:29;0.57;;;0.57;;
3487;SDS011;38546;48.170;11.724;2023-03-14T14:42:20;0.50;;;0.50;;
3487;SDS011;38546;48.170;11.724;2023-03-14T14:45:21;0.63;;;0.63;;
3487;SDS011;38546;48.170;11.724;2023-03-14T14:48:12;0.97;;;0.83;;
3487;SDS011;38546;48.170;11.724;2023-03-14T14:51:03;0.50;;;0.50;;
3487;SDS011;38546;48.170;11.724;2023-03-14T14:54:09;0.40;;;0.40;;
3487;SDS011;38546;48.170;11.724;2023-03-14T14:57:53;0.73;;;0.43;;
3487;SDS011;38546;48.170;11.724;2023-03-14T15:00:49;0.50;;;0.50;;
3487;SDS011;38546;48.170;11.724;2023-03-14T15:03:44;0.40;;;0.40;;
3487;SDS011;38546;48.170;11.724;2023-03-14T15:06:43;0.50;;;0.50;;
3487;SDS011;38546;48.170;11.724;2023-03-14T15:09:35;0.50;;;0.50;;
3487;SDS011;38546;48.170;11.724;2023-03-14T15:12:24;0.60;;;0.60;;
3487;SDS011;38546;48.170;11.724;2023-03-14T15:15:14;0.70;;;0.70;;
3487;SDS011;38546;48.170;11.724;2023-03-14T15:18:14;0.63;;;0.63;;
3487;SDS011;38546;48.170;11.724;2023-03-14T15:21:08;0.60;;;0.60;;
3487;SDS011;38546;48.170;11.724;2023-03-14T15:23:59;0.53;;;0.53;;
3487;SDS011;38546;48.170;11.724;2023-03-14T15:26:48;0.60;;;0.60;;
3487;SDS011;38546;48.170;11.724;2023-03-14T15:29:37;0.60;;;0.60;;
3487;SDS011;38546;48.170;11.724;2023-03-14T15:32:26;0.57;;;0.57;;
3487;SDS011;38546;48.170;11.724;2023-03-14T15:35:18;0.90;;;0.90;;
3487;SDS011;38546;48.170;11.724;2023-03-14T15:38:11;0.50;;;0.50;;
3487;SDS011;38546;48.170;11.724;2023-03-14T15:41:02;0.70;;;0.70;;
3487;SDS011;38546;48.170;11.724;2023-03-14T15:43:51;1.00;;;1.00;;
3487;SDS011;38546;48.170;11.724;2023-03-14T15:46:40;1.00;;;1.00;;
3487;SDS011;38546;48.170;11.724;2023-03-14T15:49:30;2.00;;;1.30;;
3487;SDS011;38546;48.170;11.724;2023-03-14T15:52:18;1.77;;;1.30;;
3487;SDS011;38546;48.170;11.724;2023-03-14T15:55:08;1.37;;;1.37;;
3487;SDS011;38546;48.170;11.724;2023-03-14T15:57:57;1.40;;;1.40;;
3487;SDS011;38546;48.170;11.724;2023-03-14T16:00:48;2.23;;;2.00;;
3487;SDS011;38546;48.170;11.724;2023-03-14T16:03:38;1.50;;;1.40;;
3487;SDS011;38546;48.170;11.724;2023-03-14T16:06:27;1.17;;;1.17;;
3487;SDS011;38546;48.170;11.724;2023-03-14T16:09:17;2.10;;;1.43;;
3487;SDS011;38546;48.170;11.724;2023-03-14T16:12:07;1.00;;;1.00;;
3487;SDS011;38546;48.170;11.724;2023-03-14T16:14:57;1.17;;;1.17;;
3487;SDS011;38546;48.170;11.724;2023-03-14T16:17:46;1.67;;;1.50;;
3487;SDS011;38546;48.170;11.724;2023-03-14T16:20:35;2.20;;;2.10;;
3487;SDS011;38546;48.170;11.724;2023-03-14T16:23:25;1.77;;;1.33;;
3487;SDS011;38546;48.170;11.724;2023-03-14T16:26:16;1.70;;;1.70;;
3487;SDS011;38546;48.170;11.724;2023-03-14T16:29:07;2.97;;;1.60;;
3487;SDS011;38546;48.170;11.724;2023-03-14T16:31:56;1.23;;;1.13;;
3487;SDS011;38546;48.170;11.724;2023-03-14T16:34:45;2.10;;;1.40;;
3487;SDS011;38546;48.170;11.724;2023-03-14T16:37:34;1.10;;;1.10;;
3487;SDS011;38546;48.170;11.724;2023-03-14T16:40:23;1.23;;;1.10;;
3487;SDS011;38546;48.170;11.724;2023-03-14T16:43:12;1.10;;;1.00;;
3487;SDS011;38546;48.170;11.724;2023-03-14T16:46:01;1.10;;;1.10;;
3487;SDS011;38546;48.170;11.724;2023-03-14T16:48:51;2.30;;;1.13;;
3487;SDS011;38546;48.170;11.724;2023-03-14T16:51:40;1.10;;;0.97;;
3487;SDS011;38546;48.170;11.724;2023-03-14T16:54:31;0.97;;;0.97;;
3487;SDS011;38546;48.170;11.724;2023-03-14T16:57:20;0.97;;;0.97;;
3487;SDS011;38546;48.170;11.724;2023-03-14T17:00:10;1.13;;;1.13;;
3487;SDS011;38546;48.170;11.724;2023-03-14T17:03:00;1.13;;;1.13;;
3487;SDS011;38546;48.170;11.724;2023-03-14T17:05:50;1.90;;;1.50;;
3487;SDS011;38546;48.170;11.724;2023-03-14T17:08:40;4.10;;;1.30;;
3487;SDS011;38546;48.170;11.724;2023-03-14T17:11:30;1.80;;;1.13;;
3487;SDS011;38546;48.170;11.724;2023-03-14T17:14:21;1.57;;;1.47;;
3487;SDS011;38546;48.170;11.724;2023-03-14T17:17:11;1.67;;;1.17;;
3487;SDS011;38546;48.170;11.724;2023-03-14T17:20:00;1.73;;;1.20;;
3487;SDS011;38546;48.170;11.724;2023-03-14T17:22:51;1.13;;;1.13;;
3487;SDS011;38546;48.170;11.724;2023-03-14T17:25:39;2.47;;;1.33;;
3487;SDS011;38546;48.170;11.724;2023-03-14T17:28:29;2.40;;;1.40;;
3487;SDS011;38546;48.170;11.724;2023-03-14T17:31:18;1.47;;;1.47;;
3487;SDS011;38546;48.170;11.724;2023-03-14T17:34:08;1.40;;;1.40;;
3487;SDS011;38546;48.170;11.724;2023-03-14T17:36:59;2.00;;;1.90;;
3487;SDS011;38546;48.170;11.724;2023-03-14T17:39:48;1.53;;;1.17;;
3487;SDS011;38546;48.170;11.724;2023-03-14T17:42:37;1.43;;;1.40;;
3487;SDS011;38546;48.170;11.724;2023-03-14T17:45:26;1.97;;;1.87;;
3487;SDS011;38546;48.170;11.724;2023-03-14T17:48:15;1.77;;;1.67;;
3487;SDS011;38546;48.170;11.724;2023-03-14T17:51:04;1.70;;;1.60;;